createdAt,value
2018-06-03T00:01:04.218Z,21.93
2018-06-03T00:03:30.530Z,21.83
2018-06-03T00:05:56.848Z,21.72
2018-06-03T00:08:23.150Z,21.66
2018-06-03T00:10:49.459Z,21.59
2018-06-03T00:13:15.763Z,21.57
2018-06-03T00:15:42.083Z,21.54
2018-06-03T00:18:08.389Z,21.55
2018-06-03T00:20:34.696Z,21.63
2018-06-03T00:23:01.002Z,21.68
2018-06-03T00:25:27.310Z,21.69
2018-06-03T00:27:53.613Z,21.70
2018-06-03T00:30:19.926Z,21.73
2018-06-03T00:32:46.309Z,21.75
2018-06-03T00:35:12.622Z,21.75
2018-06-03T00:37:39.001Z,21.76
2018-06-03T00:40:05.306Z,21.75
2018-06-03T00:42:31.606Z,21.69
2018-06-03T00:44:57.961Z,21.72
2018-06-03T00:47:24.301Z,21.64
2018-06-03T00:49:50.610Z,21.67
2018-06-03T00:52:16.912Z,21.70
2018-06-03T00:54:43.223Z,21.72
2018-06-03T00:57:09.592Z,21.69
2018-06-03T00:59:35.890Z,21.64
2018-06-03T01:02:02.203Z,21.62
2018-06-03T01:04:28.551Z,21.61
2018-06-03T01:06:54.914Z,21.58
2018-06-03T01:09:21.217Z,21.56
2018-06-03T01:11:47.529Z,21.51
2018-06-03T01:14:13.829Z,21.51
2018-06-03T01:16:40.137Z,21.50
2018-06-03T01:19:06.452Z,21.47
2018-06-03T01:21:32.760Z,21.46
2018-06-03T01:23:59.058Z,21.47
2018-06-03T01:26:25.412Z,21.44
2018-06-03T01:28:51.730Z,21.40
2018-06-03T01:31:18.038Z,21.38
2018-06-03T01:33:44.351Z,21.40
2018-06-03T01:36:10.659Z,21.38
2018-06-03T01:38:37.051Z,21.36
2018-06-03T01:41:03.350Z,21.35
2018-06-03T01:43:29.668Z,21.32
2018-06-03T01:45:55.969Z,21.24
2018-06-03T01:48:22.301Z,21.21
2018-06-03T01:50:48.607Z,21.21
2018-06-03T01:53:14.914Z,21.21
2018-06-03T01:55:41.259Z,21.18
2018-06-03T01:58:07.568Z,21.17
2018-06-03T02:00:33.866Z,21.12
2018-06-03T02:03:00.179Z,21.12
2018-06-03T02:05:26.528Z,21.11
2018-06-03T02:07:52.870Z,21.10
2018-06-03T02:10:19.181Z,21.05
2018-06-03T02:12:45.499Z,20.98
2018-06-03T02:15:11.871Z,20.97
2018-06-03T02:17:38.170Z,20.98
2018-06-03T02:20:04.474Z,20.98
2018-06-03T02:22:30.787Z,20.98
2018-06-03T02:24:57.104Z,20.96
2018-06-03T02:27:23.444Z,20.94
2018-06-03T02:29:49.749Z,20.91
2018-06-03T02:32:16.067Z,20.90
2018-06-03T02:34:42.371Z,20.89
2018-06-03T02:37:08.773Z,20.89
2018-06-03T02:39:35.092Z,20.89
2018-06-03T02:42:01.413Z,20.89
2018-06-03T02:44:27.750Z,20.87
2018-06-03T02:46:54.053Z,20.82
2018-06-03T02:49:20.364Z,20.87
2018-06-03T02:51:46.679Z,20.87
2018-06-03T02:54:12.984Z,20.81
2018-06-03T02:56:39.285Z,20.79
2018-06-03T02:59:05.647Z,20.79
2018-06-03T03:01:31.962Z,20.85
2018-06-03T03:03:58.272Z,20.80
2018-06-03T03:06:24.587Z,20.77
2018-06-03T03:08:50.901Z,20.81
2018-06-03T03:11:17.217Z,20.78
2018-06-03T03:13:43.523Z,20.80
2018-06-03T03:16:09.836Z,20.78
2018-06-03T03:18:36.181Z,20.76
2018-06-03T03:21:02.483Z,20.74
2018-06-03T03:23:28.792Z,20.76
2018-06-03T03:25:55.100Z,20.72
2018-06-03T03:28:21.427Z,20.72
2018-06-03T03:30:47.734Z,20.71
2018-06-03T03:33:14.039Z,20.70
2018-06-03T03:35:40.342Z,20.71
2018-06-03T03:38:06.650Z,20.75
2018-06-03T03:40:32.953Z,20.75
2018-06-03T03:42:59.265Z,20.78
2018-06-03T03:45:25.575Z,20.80
2018-06-03T03:47:51.931Z,20.74
2018-06-03T03:50:18.241Z,20.77
2018-06-03T03:52:44.552Z,20.81
2018-06-03T03:55:10.864Z,20.85
2018-06-03T03:57:37.173Z,20.84
2018-06-03T04:00:04.641Z,20.86
2018-06-03T04:02:30.954Z,20.89
2018-06-03T04:04:57.264Z,20.95
2018-06-03T04:07:23.577Z,20.97
2018-06-03T04:09:49.885Z,20.91
2018-06-03T04:12:16.190Z,20.90
2018-06-03T04:14:42.507Z,20.96
2018-06-03T04:17:08.811Z,20.99
2018-06-03T04:19:35.118Z,21.06
2018-06-03T04:22:01.429Z,21.01
2018-06-03T04:24:27.736Z,21.00
2018-06-03T04:26:54.046Z,21.06
2018-06-03T04:29:20.355Z,21.07
2018-06-03T04:31:46.670Z,21.13
2018-06-03T04:34:12.981Z,21.19
2018-06-03T04:36:39.291Z,21.20
2018-06-03T04:39:05.609Z,21.21
2018-06-03T04:41:31.929Z,21.24
2018-06-03T04:43:58.247Z,21.27
2018-06-03T04:46:24.575Z,21.30
2018-06-03T04:48:50.904Z,21.33
2018-06-03T04:51:17.191Z,21.33
2018-06-03T04:53:43.494Z,21.39
2018-06-03T04:56:09.801Z,21.41
2018-06-03T04:58:36.107Z,21.44
2018-06-03T05:01:02.411Z,21.49
2018-06-03T05:03:28.726Z,21.47
2018-06-03T05:05:55.046Z,21.52
2018-06-03T05:08:21.357Z,21.60
2018-06-03T05:10:47.673Z,21.65
2018-06-03T05:13:13.984Z,21.69
2018-06-03T05:15:40.342Z,21.69
2018-06-03T05:18:06.646Z,21.73
2018-06-03T05:20:32.994Z,21.79
2018-06-03T05:22:59.310Z,21.84
2018-06-03T05:25:25.632Z,21.87
2018-06-03T05:27:51.938Z,21.91
2018-06-03T05:30:18.244Z,21.93
2018-06-03T05:32:44.561Z,22.01
2018-06-03T05:35:10.877Z,22.06
2018-06-03T05:37:37.231Z,22.13
2018-06-03T05:40:03.519Z,22.22
2018-06-03T05:42:29.870Z,22.27
2018-06-03T05:44:56.140Z,22.37
2018-06-03T05:47:22.493Z,22.46
2018-06-03T05:49:48.810Z,22.51
2018-06-03T05:52:15.138Z,22.60
2018-06-03T05:54:41.452Z,22.65
2018-06-03T05:57:07.761Z,22.68
2018-06-03T05:59:34.073Z,22.74
2018-06-03T06:02:00.387Z,22.83
2018-06-03T06:04:26.754Z,22.90
2018-06-03T06:06:53.055Z,23.02
2018-06-03T06:09:19.369Z,23.11
2018-06-03T06:11:45.693Z,23.17
2018-06-03T06:14:11.994Z,23.26
2018-06-03T06:16:38.303Z,23.36
2018-06-03T06:19:04.683Z,23.44
2018-06-03T06:21:30.991Z,23.52
2018-06-03T06:23:57.294Z,23.68
2018-06-03T06:26:23.607Z,23.79
2018-06-03T06:28:49.910Z,23.85
2018-06-03T06:31:16.213Z,23.91
2018-06-03T06:33:42.518Z,23.94
2018-06-03T06:36:08.823Z,24.00
2018-06-03T06:38:35.139Z,24.09
2018-06-03T06:41:01.446Z,24.16
2018-06-03T06:43:27.806Z,24.28
2018-06-03T06:45:54.115Z,24.32
2018-06-03T06:48:20.428Z,24.41
2018-06-03T06:50:46.745Z,24.58
2018-06-03T06:53:13.052Z,24.79
2018-06-03T06:55:39.369Z,25.07
2018-06-03T06:58:05.685Z,25.39
2018-06-03T07:00:32.002Z,25.44
2018-06-03T07:02:58.320Z,25.45
2018-06-03T07:05:25.935Z,25.53
2018-06-03T07:07:52.169Z,25.59
2018-06-03T07:10:18.518Z,25.57
2018-06-03T07:12:44.776Z,25.59
2018-06-03T07:15:11.081Z,25.68
2018-06-03T07:17:37.374Z,25.76
2018-06-03T07:20:03.665Z,25.89
2018-06-03T07:22:29.963Z,25.91
2018-06-03T07:24:56.265Z,25.76
2018-06-03T07:27:22.551Z,25.79
2018-06-03T07:29:48.923Z,25.98
2018-06-03T07:32:15.148Z,26.13
2018-06-03T07:34:41.446Z,26.27
2018-06-03T07:37:07.740Z,26.34
2018-06-03T07:39:34.049Z,26.46
2018-06-03T07:42:00.372Z,26.52
2018-06-03T07:44:26.716Z,26.57
2018-06-03T07:46:53.025Z,26.68
2018-06-03T07:49:19.360Z,26.77
2018-06-03T07:51:45.696Z,26.70
2018-06-03T07:54:11.962Z,26.69
2018-06-03T07:56:38.253Z,26.84
2018-06-03T07:59:04.632Z,26.95
2018-06-03T08:01:30.916Z,27.01
2018-06-03T08:03:57.215Z,27.03
2018-06-03T08:06:23.519Z,27.01
2018-06-03T08:08:49.806Z,26.99
2018-06-03T08:11:16.173Z,27.10
2018-06-03T08:13:42.483Z,27.24
2018-06-03T08:16:08.759Z,27.29
2018-06-03T08:18:35.055Z,27.31
2018-06-03T08:21:01.379Z,27.31
2018-06-03T08:23:27.644Z,27.39
2018-06-03T08:25:53.984Z,27.47
2018-06-03T08:28:20.311Z,27.54
2018-06-03T08:30:46.664Z,27.44
2018-06-03T08:33:12.953Z,27.42
2018-06-03T08:35:39.247Z,27.50
2018-06-03T08:38:05.579Z,27.51
2018-06-03T08:40:31.874Z,27.56
2018-06-03T08:42:58.195Z,27.70
2018-06-03T08:45:26.830Z,27.70
2018-06-03T08:47:53.177Z,27.78
2018-06-03T08:50:19.496Z,27.76
2018-06-03T08:52:45.760Z,27.78
2018-06-03T08:55:12.053Z,27.84
2018-06-03T08:57:38.364Z,27.83
2018-06-03T09:00:04.698Z,27.99
2018-06-03T09:02:30.958Z,28.09
2018-06-03T09:04:57.277Z,28.25
2018-06-03T09:07:23.565Z,28.16
2018-06-03T09:09:49.855Z,28.03
2018-06-03T09:12:16.155Z,27.98
2018-06-03T09:14:42.455Z,27.95
2018-06-03T09:17:08.790Z,28.13
2018-06-03T09:19:36.420Z,28.12
2018-06-03T09:22:01.407Z,28.20
2018-06-03T09:24:27.700Z,28.26
2018-06-03T09:26:54.002Z,28.22
2018-06-03T09:29:20.304Z,28.16
2018-06-03T09:31:46.615Z,28.15
2018-06-03T09:34:12.922Z,28.12
2018-06-03T09:36:39.273Z,28.05
2018-06-03T09:39:05.568Z,27.83
2018-06-03T09:41:31.872Z,27.84
2018-06-03T09:43:58.159Z,28.02
2018-06-03T09:46:24.458Z,28.16
2018-06-03T09:48:50.759Z,28.22
2018-06-03T09:51:17.092Z,28.22
2018-06-03T09:53:43.383Z,28.19
2018-06-03T09:56:12.396Z,28.36
2018-06-03T09:58:55.032Z,28.46
2018-06-03T10:01:21.326Z,28.43
2018-06-03T10:03:47.621Z,28.48
2018-06-03T10:06:13.968Z,28.56
2018-06-03T10:08:40.295Z,28.68
2018-06-03T10:11:06.635Z,28.76
2018-06-03T10:13:32.924Z,28.75
2018-06-03T10:15:59.220Z,28.77
2018-06-03T10:21:11.364Z,28.80
2018-06-03T10:23:37.477Z,28.58
2018-06-03T10:26:03.772Z,28.57
2018-06-03T10:28:30.238Z,28.56
2018-06-03T10:30:56.513Z,28.55
2018-06-03T10:33:22.799Z,28.63
2018-06-03T10:35:49.093Z,28.64
2018-06-03T10:38:15.380Z,28.56
2018-06-03T10:40:41.677Z,28.52
2018-06-03T10:43:07.988Z,28.64
2018-06-03T10:45:34.285Z,28.79
2018-06-03T10:48:00.585Z,28.80
2018-06-03T10:50:26.876Z,28.97
2018-06-03T10:52:53.164Z,29.01
2018-06-03T10:55:19.454Z,29.05
2018-06-03T10:57:45.742Z,28.93
2018-06-03T11:00:12.067Z,28.77
2018-06-03T11:02:38.364Z,28.61
2018-06-03T11:05:04.657Z,28.46
2018-06-03T11:07:30.959Z,28.38
2018-06-03T11:09:57.305Z,28.28
2018-06-03T11:12:23.634Z,28.17
2018-06-03T11:14:49.933Z,28.09
2018-06-03T11:17:16.220Z,28.04
2018-06-03T11:19:42.583Z,27.94
2018-06-03T11:22:08.900Z,27.88
2018-06-03T11:24:35.208Z,27.81
2018-06-03T11:27:01.509Z,27.79
2018-06-03T11:29:27.849Z,27.66
2018-06-03T11:31:54.139Z,27.41
2018-06-03T11:34:20.433Z,27.30
2018-06-03T11:36:46.724Z,27.33
2018-06-03T11:39:13.015Z,27.14
2018-06-03T11:41:39.312Z,26.95
2018-06-03T11:44:05.622Z,26.98
2018-06-03T11:46:31.920Z,27.11
2018-06-03T11:48:58.207Z,27.20
2018-06-03T11:51:24.501Z,27.23
2018-06-03T11:53:50.834Z,27.16
2018-06-03T11:56:17.097Z,27.06
2018-06-03T11:58:43.396Z,27.05
2018-06-03T12:01:09.700Z,27.08
2018-06-03T12:03:36.000Z,27.09
2018-06-03T12:06:02.287Z,27.07
2018-06-03T12:08:28.582Z,26.87
2018-06-03T12:10:54.877Z,26.74
2018-06-03T12:13:21.175Z,26.52
2018-06-03T12:15:47.465Z,26.47
2018-06-03T12:18:13.755Z,26.07
2018-06-03T12:20:40.047Z,25.64
2018-06-03T12:23:06.408Z,25.27
2018-06-03T12:25:32.725Z,25.34
2018-06-03T12:27:59.024Z,25.82
2018-06-03T12:30:25.316Z,26.20
2018-06-03T12:32:51.613Z,26.24
2018-06-03T12:35:17.939Z,26.44
2018-06-03T12:37:44.230Z,26.66
2018-06-03T12:40:10.524Z,26.67
2018-06-03T12:42:36.816Z,26.55
2018-06-03T12:45:03.106Z,26.39
2018-06-03T12:47:29.405Z,26.36
2018-06-03T12:49:55.696Z,26.43
2018-06-03T12:52:22.004Z,26.53
2018-06-03T12:54:48.287Z,26.59
2018-06-03T12:57:14.587Z,26.60
2018-06-03T12:59:40.897Z,26.65
2018-06-03T13:02:07.186Z,26.69
2018-06-03T13:04:33.527Z,26.71
2018-06-03T13:06:59.832Z,26.73
2018-06-03T13:09:26.171Z,26.68
2018-06-03T13:11:52.524Z,26.76
2018-06-03T13:14:18.787Z,26.87
2018-06-03T13:16:45.116Z,26.95
2018-06-03T13:19:11.445Z,27.02
2018-06-03T13:21:37.737Z,27.07
2018-06-03T13:24:04.035Z,27.11
2018-06-03T13:26:30.329Z,27.16
2018-06-03T13:28:56.657Z,27.17
2018-06-03T13:31:22.955Z,27.19
2018-06-03T13:33:49.286Z,27.19
2018-06-03T13:36:15.588Z,27.19
2018-06-03T13:38:41.885Z,27.17
2018-06-03T13:41:08.216Z,27.15
2018-06-03T13:43:34.509Z,27.11
2018-06-03T13:46:00.805Z,27.08
2018-06-03T13:48:27.099Z,27.08
2018-06-03T13:50:53.399Z,27.03
2018-06-03T13:53:19.701Z,27.04
2018-06-03T13:55:45.983Z,27.00
2018-06-03T13:58:12.282Z,26.96
2018-06-03T14:00:38.576Z,26.90
2018-06-03T14:03:04.875Z,26.82
2018-06-03T14:05:31.191Z,26.74
2018-06-03T14:07:57.486Z,26.72
2018-06-03T14:10:23.774Z,26.69
2018-06-03T14:12:50.063Z,26.67
2018-06-03T14:15:16.359Z,26.64
2018-06-03T14:17:42.660Z,26.59
2018-06-03T14:20:08.952Z,26.49
2018-06-03T14:22:35.252Z,26.41
2018-06-03T14:25:01.619Z,26.33
2018-06-03T14:27:27.923Z,26.23
2018-06-03T14:29:54.221Z,26.12
2018-06-03T14:32:20.519Z,26.03
2018-06-03T14:34:46.819Z,25.93
2018-06-03T14:37:13.109Z,25.81
2018-06-03T14:39:39.404Z,25.70
2018-06-03T14:42:05.694Z,25.65
2018-06-03T14:44:32.062Z,25.60
2018-06-03T14:46:58.321Z,25.53
2018-06-03T14:49:24.620Z,25.50
2018-06-03T14:51:50.924Z,25.46
2018-06-03T14:54:17.217Z,25.46
2018-06-03T14:56:43.517Z,25.43
2018-06-03T14:59:09.762Z,25.42
2018-06-03T15:01:36.051Z,25.48
2018-06-03T15:04:02.351Z,25.57
2018-06-03T15:06:28.644Z,25.63
2018-06-03T15:08:54.976Z,25.66
2018-06-03T15:11:21.334Z,25.67
2018-06-03T15:13:47.704Z,25.72
2018-06-03T15:16:13.973Z,25.94
2018-06-03T15:18:40.266Z,26.08
2018-06-03T15:21:06.569Z,26.06
2018-06-03T15:23:32.918Z,26.04
2018-06-03T15:25:59.260Z,26.18
2018-06-03T15:28:25.554Z,26.26
2018-06-03T15:30:51.890Z,26.18
2018-06-03T15:33:18.195Z,26.05
2018-06-03T15:35:44.487Z,25.94
2018-06-03T15:38:10.791Z,25.88
2018-06-03T15:40:37.085Z,25.86
2018-06-03T15:43:03.464Z,25.83
2018-06-03T15:45:29.764Z,25.81
2018-06-03T15:47:56.053Z,25.81
2018-06-03T15:50:22.389Z,25.82
2018-06-03T15:52:48.672Z,25.82
2018-06-03T15:55:15.014Z,25.83
2018-06-03T15:57:41.321Z,25.86
2018-06-03T16:00:07.659Z,25.86
2018-06-03T16:02:33.960Z,25.85
2018-06-03T16:05:00.360Z,25.84
2018-06-03T16:07:26.593Z,25.82
2018-06-03T16:09:52.883Z,25.81
2018-06-03T16:12:19.189Z,25.81
2018-06-03T16:14:45.484Z,25.78
2018-06-03T16:17:11.783Z,25.72
2018-06-03T16:19:38.076Z,25.73
2018-06-03T16:22:04.400Z,25.68
2018-06-03T16:24:30.713Z,25.66
2018-06-03T16:26:57.001Z,25.65
2018-06-03T16:29:23.285Z,25.67
2018-06-03T16:31:49.576Z,25.66
2018-06-03T16:34:15.878Z,25.66
2018-06-03T16:36:42.212Z,25.63
2018-06-03T16:39:08.511Z,25.58
2018-06-03T16:41:34.808Z,25.56
2018-06-03T16:44:01.092Z,25.50
2018-06-03T16:46:27.382Z,25.50
2018-06-03T16:48:53.670Z,25.51
2018-06-03T16:51:19.970Z,25.49
2018-06-03T16:53:46.276Z,25.47
2018-06-03T16:56:12.573Z,25.44
2018-06-03T16:58:38.865Z,25.43
2018-06-03T17:01:05.174Z,25.42
2018-06-03T17:03:31.465Z,25.37
2018-06-03T17:05:57.755Z,25.37
2018-06-03T17:08:24.129Z,25.36
2018-06-03T17:10:50.601Z,25.36
2018-06-03T17:13:16.886Z,25.30
2018-06-03T17:15:43.179Z,25.26
2018-06-03T17:18:09.502Z,25.24
2018-06-03T17:20:35.864Z,25.24
2018-06-03T17:23:02.133Z,25.21
2018-06-03T17:25:28.425Z,25.19
2018-06-03T17:27:54.722Z,25.23
2018-06-03T17:30:21.021Z,25.29
2018-06-03T17:32:47.326Z,25.29
2018-06-03T17:35:13.636Z,25.25
2018-06-03T17:37:39.921Z,25.21
2018-06-03T17:40:06.217Z,25.25
2018-06-03T17:42:32.502Z,25.31
2018-06-03T17:44:58.803Z,25.39
2018-06-03T17:47:25.088Z,25.39
2018-06-03T17:49:51.385Z,25.40
2018-06-03T17:52:17.683Z,25.39
2018-06-03T17:54:43.979Z,25.40
2018-06-03T17:57:10.265Z,25.42
2018-06-03T17:59:36.563Z,25.44
2018-06-03T18:02:02.851Z,25.51
2018-06-03T18:04:29.143Z,25.56
2018-06-03T18:06:55.439Z,25.55
2018-06-03T18:09:21.732Z,25.48
2018-06-03T18:11:48.023Z,25.39
2018-06-03T18:14:14.387Z,25.33
2018-06-03T18:16:40.683Z,25.29
2018-06-03T18:19:06.978Z,25.24
2018-06-03T18:21:33.275Z,25.28
2018-06-03T18:23:59.563Z,25.31
2018-06-03T18:26:25.858Z,25.38
2018-06-03T18:28:52.163Z,25.42
2018-06-03T18:31:18.472Z,25.47
2018-06-03T18:33:44.759Z,25.53
2018-06-03T18:36:11.056Z,25.54
2018-06-03T18:38:37.343Z,25.56
2018-06-03T18:41:03.654Z,25.47
2018-06-03T18:43:29.935Z,25.40
2018-06-03T18:45:56.233Z,25.43
2018-06-03T18:48:22.535Z,25.42
2018-06-03T18:50:48.824Z,25.45
2018-06-03T18:53:15.128Z,25.50
2018-06-03T18:55:41.420Z,25.53
2018-06-03T18:58:07.707Z,25.55
2018-06-03T19:00:34.004Z,25.56
2018-06-03T19:03:00.297Z,25.44
2018-06-03T19:05:26.585Z,25.25
2018-06-03T19:07:52.880Z,25.09
2018-06-03T19:10:19.178Z,24.97
2018-06-03T19:12:45.513Z,24.85
2018-06-03T19:15:15.414Z,24.78
2018-06-03T19:17:50.553Z,24.73
2018-06-03T19:20:15.407Z,24.69
2018-06-03T19:22:41.749Z,24.66
2018-06-03T19:25:08.044Z,24.62
2018-06-03T19:27:34.363Z,24.58
2018-06-03T19:30:00.661Z,24.57
2018-06-03T19:32:26.959Z,24.53
2018-06-03T19:34:53.248Z,24.51
2018-06-03T19:37:19.545Z,24.48
2018-06-03T19:39:45.844Z,24.42
2018-06-03T19:42:12.185Z,24.39
2018-06-03T19:44:38.480Z,24.39
2018-06-03T19:47:04.774Z,24.35
2018-06-03T19:49:31.081Z,24.35
2018-06-03T19:51:57.424Z,24.32
2018-06-03T19:54:23.715Z,24.31
2018-06-03T19:56:50.014Z,24.27
2018-06-03T19:59:16.301Z,24.25
2018-06-03T20:01:43.025Z,24.20
2018-06-03T20:04:09.332Z,24.16
2018-06-03T20:06:35.623Z,24.15
2018-06-03T20:09:01.931Z,24.15
2018-06-03T20:11:28.216Z,24.10
2018-06-03T20:13:54.508Z,24.11
2018-06-03T20:16:20.800Z,24.11
2018-06-03T20:18:47.090Z,24.12
2018-06-03T20:21:13.394Z,24.11
2018-06-03T20:23:39.724Z,24.07
2018-06-03T20:26:06.020Z,24.04
2018-06-03T20:28:32.311Z,24.01
2018-06-03T20:30:58.608Z,23.96
2018-06-03T20:33:24.890Z,24.02
2018-06-03T20:35:51.187Z,24.09
2018-06-03T20:38:17.476Z,24.06
2018-06-03T20:40:43.798Z,24.00
2018-06-03T20:43:10.306Z,23.97
2018-06-03T20:45:36.564Z,23.94
2018-06-03T20:48:02.863Z,23.88
2018-06-03T20:50:29.157Z,23.85
2018-06-03T20:52:55.452Z,23.85
2018-06-03T20:55:21.742Z,23.84
2018-06-03T20:57:48.084Z,23.80
2018-06-03T21:00:14.417Z,23.77
2018-06-03T21:02:40.679Z,23.77
2018-06-03T21:05:06.971Z,23.73
2018-06-03T21:07:33.269Z,23.71
2018-06-03T21:09:59.565Z,23.70
2018-06-03T21:12:25.864Z,23.70
2018-06-03T21:14:52.154Z,23.71
2018-06-03T21:17:18.455Z,23.68
2018-06-03T21:19:44.747Z,23.64
2018-06-03T21:22:11.037Z,23.61
2018-06-03T21:24:37.334Z,23.62
2018-06-03T21:27:03.670Z,23.59
2018-06-03T21:29:29.964Z,23.61
2018-06-03T21:31:56.263Z,23.63
2018-06-03T21:34:22.590Z,23.61
2018-06-03T21:36:48.914Z,23.61
2018-06-03T21:39:15.206Z,23.56
2018-06-03T21:41:41.497Z,23.52
2018-06-03T21:44:07.794Z,23.48
2018-06-03T21:46:34.134Z,23.45
2018-06-03T21:49:00.428Z,23.45
2018-06-03T21:51:26.715Z,23.43
2018-06-03T21:53:53.016Z,23.43
2018-06-03T21:56:19.299Z,23.42
2018-06-03T21:58:45.594Z,23.41
2018-06-03T22:01:11.907Z,23.42
2018-06-03T22:03:38.201Z,23.44
2018-06-03T22:06:04.491Z,23.41
2018-06-03T22:08:30.781Z,23.37
2018-06-03T22:10:57.114Z,23.36
2018-06-03T22:13:23.447Z,23.34
2018-06-03T22:15:49.740Z,23.32
2018-06-03T22:18:16.031Z,23.34
2018-06-03T22:20:42.329Z,23.33
2018-06-03T22:23:08.623Z,23.29
2018-06-03T22:25:34.964Z,23.28
2018-06-03T22:28:01.252Z,23.25
2018-06-03T22:30:27.550Z,23.26
2018-06-03T22:32:56.331Z,23.23
2018-06-03T22:35:22.623Z,23.21
2018-06-03T22:37:48.912Z,23.17
2018-06-03T22:40:15.199Z,23.16
2018-06-03T22:42:41.496Z,23.10
2018-06-03T22:45:07.782Z,23.08
2018-06-03T22:47:34.073Z,23.03
2018-06-03T22:50:00.387Z,23.08
2018-06-03T22:52:26.676Z,23.06
2018-06-03T22:54:58.882Z,23.03
2018-06-03T22:57:25.140Z,23.01
2018-06-03T22:59:51.434Z,22.98
2018-06-03T23:02:17.772Z,22.96
2018-06-03T23:05:05.107Z,22.94
2018-06-03T23:07:21.082Z,22.89
2018-06-03T23:09:47.376Z,22.88
2018-06-03T23:12:13.684Z,22.87
2018-06-03T23:14:39.981Z,22.87
2018-06-03T23:17:06.274Z,22.87
2018-06-03T23:19:33.595Z,22.84
2018-06-03T23:21:59.930Z,22.84
2018-06-03T23:24:26.225Z,22.79
2018-06-03T23:26:52.525Z,22.78
2018-06-03T23:29:18.827Z,22.78
2018-06-03T23:31:45.124Z,22.79
2018-06-03T23:34:11.419Z,22.78
2018-06-03T23:36:37.730Z,22.77
2018-06-03T23:39:04.025Z,22.76
2018-06-03T23:41:30.311Z,22.74
2018-06-03T23:43:56.602Z,22.72
2018-06-03T23:46:22.891Z,22.70
2018-06-03T23:48:49.186Z,22.67
2018-06-03T23:51:15.483Z,22.65
2018-06-03T23:53:41.774Z,22.63
2018-06-03T23:56:08.115Z,22.61
2018-06-03T23:58:34.411Z,22.56
